Time,TemperatureF,DewpointF,PressureIn,WindDirection,WindDirectionDegrees,WindSpeedMPH,WindSpeedGustMPH,Humidity,HourlyPrecipIn,Conditions,Clouds,dailyrainin,SoftwareType,DateUTC
2013-02-16 00:06:00,31.1,28.8,29.79,WSW,247,6.3,-999.0,91,-99.99,,,0.00,Acu-Link.com,2013-02-16 05:06:00,
2013-02-16 00:21:00,30.9,28.9,29.79,WSW,247,9.4,-999.0,92,-99.99,,,0.00,Acu-Link.com,2013-02-16 05:21:00,
2013-02-16 00:37:00,30.6,28.3,29.78,West,270,6.3,-999.0,91,-99.99,,,0.00,Acu-Link.com,2013-02-16 05:37:00,
2013-02-16 00:52:00,30.6,28.0,29.78,SW,225,9.9,-999.0,90,-99.99,,,0.00,Acu-Link.com,2013-02-16 05:52:00,
2013-02-16 01:07:00,30.6,27.5,29.78,West,270,8.3,-999.0,88,-99.99,,,0.00,Acu-Link.com,2013-02-16 06:07:00,
2013-02-16 01:22:00,30.6,27.8,29.78,SW,225,8.3,-999.0,89,-99.99,,,0.00,Acu-Link.com,2013-02-16 06:22:00,
2013-02-16 01:37:00,30.6,27.8,29.76,WSW,247,9.9,-999.0,89,-99.99,,,0.00,Acu-Link.com,2013-02-16 06:37:00,
2013-02-16 01:53:00,30.6,27.5,29.76,WNW,292,10.4,-999.0,88,-99.99,,,0.00,Acu-Link.com,2013-02-16 06:53:00,
2013-02-16 02:08:00,30.4,27.3,29.76,West,270,7.8,-999.0,88,-99.99,,,0.00,Acu-Link.com,2013-02-16 07:08:00,
2013-02-16 02:24:00,30.0,26.9,29.75,WSW,247,5.3,-999.0,88,-99.99,,,0.00,Acu-Link.com,2013-02-16 07:24:00,
2013-02-16 02:39:00,29.8,26.7,29.75,West,270,6.3,-999.0,88,-99.99,,,0.00,Acu-Link.com,2013-02-16 07:39:00,
2013-02-16 02:54:00,29.8,26.4,29.74,West,270,6.3,-999.0,87,-99.99,,,0.00,Acu-Link.com,2013-02-16 07:54:00,
2013-02-16 03:09:00,29.7,26.0,29.75,West,270,5.8,-999.0,86,-99.99,,,0.00,Acu-Link.com,2013-02-16 08:09:00,
2013-02-16 03:25:00,29.5,25.8,29.74,West,270,4.7,-999.0,86,-99.99,,,0.00,Acu-Link.com,2013-02-16 08:25:00,
2013-02-16 03:40:00,29.3,25.6,29.74,West,270,6.8,-999.0,86,-99.99,,,0.00,Acu-Link.com,2013-02-16 08:40:00,
2013-02-16 03:55:00,29.1,25.4,29.73,West,270,6.3,-999.0,86,-99.99,,,0.00,Acu-Link.com,2013-02-16 08:55:00,
2013-02-16 04:18:00,29.1,25.2,29.74,WSW,247,5.3,-999.0,85,-99.99,,,0.00,Acu-Link.com,2013-02-16 09:18:00,
2013-02-16 04:33:00,28.8,24.6,29.74,WSW,247,4.2,-999.0,84,-99.99,,,0.00,Acu-Link.com,2013-02-16 09:33:00,
2013-02-16 04:48:00,28.8,24.3,29.74,WSW,247,5.3,-999.0,83,-99.99,,,0.00,Acu-Link.com,2013-02-16 09:48:00,
2013-02-16 05:04:00,28.8,24.0,29.74,West,270,6.3,-999.0,82,-99.99,,,0.00,Acu-Link.com,2013-02-16 10:04:00,
2013-02-16 05:19:00,28.9,24.1,29.74,West,270,6.3,-999.0,82,-99.99,,,0.00,Acu-Link.com,2013-02-16 10:19:00,
2013-02-16 05:34:00,28.9,24.4,29.74,West,270,6.8,-999.0,83,-99.99,,,0.00,Acu-Link.com,2013-02-16 10:34:00,
2013-02-16 05:49:00,28.9,24.7,29.73,SSE,157,1.7,-999.0,84,-99.99,,,0.00,Acu-Link.com,2013-02-16 10:49:00,
2013-02-16 06:04:00,28.8,24.6,29.74,SE,135,2.7,-999.0,84,-99.99,,,0.00,Acu-Link.com,2013-02-16 11:04:00,
2013-02-16 06:20:00,28.2,24.3,29.74,West,270,3.2,-999.0,85,-99.99,,,0.00,Acu-Link.com,2013-02-16 11:20:00,
2013-02-16 06:35:00,28.2,24.3,29.73,SSW,202,1.7,-999.0,85,-99.99,,,0.00,Acu-Link.com,2013-02-16 11:35:00,
2013-02-16 06:50:00,28.0,24.1,29.73,West,270,4.2,-999.0,85,-99.99,,,0.00,Acu-Link.com,2013-02-16 11:50:00,
2013-02-16 07:06:00,28.0,24.1,29.73,West,270,5.8,-999.0,85,-99.99,,,0.00,Acu-Link.com,2013-02-16 12:06:00,
2013-02-16 07:21:00,28.0,24.1,29.73,West,270,4.7,-999.0,85,-99.99,,,0.00,Acu-Link.com,2013-02-16 12:21:00,
2013-02-16 07:36:00,27.9,24.0,29.74,WSW,247,5.8,-999.0,85,-99.99,,,0.00,Acu-Link.com,2013-02-16 12:36:00,
2013-02-16 07:52:00,27.9,23.7,29.73,West,270,3.7,-999.0,84,-99.99,,,0.00,Acu-Link.com,2013-02-16 12:52:00,
2013-02-16 08:07:00,28.0,23.8,29.73,SW,225,5.8,-999.0,84,-99.99,,,0.00,Acu-Link.com,2013-02-16 13:07:00,
2013-02-16 08:22:00,28.2,24.0,29.73,West,270,4.2,-999.0,84,-99.99,,,0.00,Acu-Link.com,2013-02-16 13:22:00,
2013-02-16 08:38:00,28.6,24.1,29.73,West,270,4.2,-999.0,83,-99.99,,,0.00,Acu-Link.com,2013-02-16 13:38:00,
2013-02-16 08:53:00,29.1,24.0,29.72,West,270,3.7,-999.0,81,-99.99,,,0.00,Acu-Link.com,2013-02-16 13:53:00,
2013-02-16 09:08:00,29.3,23.6,29.72,West,270,7.3,-999.0,79,-99.99,,,0.00,Acu-Link.com,2013-02-16 14:08:00,
2013-02-16 09:23:00,29.5,22.9,29.71,West,270,4.2,-999.0,76,-99.99,,,0.00,Acu-Link.com,2013-02-16 14:23:00,
2013-02-16 09:38:00,29.5,22.6,29.70,West,270,5.8,-999.0,75,-99.99,,,0.00,Acu-Link.com,2013-02-16 14:38:00,
2013-02-16 09:53:00,30.7,22.4,29.71,SW,225,3.7,-999.0,71,-99.99,,,0.00,Acu-Link.com,2013-02-16 14:53:00,
2013-02-16 10:09:00,30.6,21.3,29.70,West,270,7.3,-999.0,68,-99.99,,,0.00,Acu-Link.com,2013-02-16 15:09:00,
2013-02-16 10:24:00,30.4,21.1,29.69,WNW,292,3.2,-999.0,68,-99.99,,,0.00,Acu-Link.com,2013-02-16 15:24:00,
2013-02-16 10:39:00,29.8,20.9,29.69,West,270,4.7,-999.0,69,-99.99,,,0.00,Acu-Link.com,2013-02-16 15:39:00,
2013-02-16 10:55:00,29.8,20.9,29.70,West,270,8.9,-999.0,69,-99.99,,,0.00,Acu-Link.com,2013-02-16 15:55:00,
2013-02-16 11:10:00,29.7,20.5,29.70,WNW,292,6.8,-999.0,68,-99.99,,,0.00,Acu-Link.com,2013-02-16 16:10:00,
2013-02-16 11:25:00,29.7,21.1,29.69,West,270,8.3,-999.0,70,-99.99,,,0.00,Acu-Link.com,2013-02-16 16:25:00,
2013-02-16 11:41:00,30.0,21.4,29.69,WNW,292,5.8,-999.0,70,-99.99,,,0.00,Acu-Link.com,2013-02-16 16:41:00,
2013-02-16 11:56:00,29.8,21.6,29.68,WNW,292,2.2,-999.0,71,-99.99,,,0.00,Acu-Link.com,2013-02-16 16:56:00,
2013-02-16 12:11:00,29.5,22.3,29.68,West,270,3.7,-999.0,74,-99.99,,,0.00,Acu-Link.com,2013-02-16 17:11:00,
2013-02-16 12:27:00,30.0,20.7,29.67,NW,315,4.2,-999.0,68,-99.99,,,0.00,Acu-Link.com,2013-02-16 17:27:00,
2013-02-16 12:42:00,30.4,21.5,29.67,SW,225,5.3,-999.0,69,-99.99,,,0.00,Acu-Link.com,2013-02-16 17:42:00,
2013-02-16 12:57:00,29.1,22.2,29.66,West,270,4.2,-999.0,75,-99.99,,,0.00,Acu-Link.com,2013-02-16 17:57:00,
2013-02-16 13:12:00,29.1,21.5,29.65,WNW,292,3.2,-999.0,73,-99.99,,,0.00,Acu-Link.com,2013-02-16 18:12:00,
2013-02-16 13:28:00,29.1,21.9,29.64,WNW,292,2.2,-999.0,74,-99.99,,,0.00,Acu-Link.com,2013-02-16 18:28:00,
2013-02-16 13:43:00,28.6,21.1,29.64,NNW,337,4.7,-999.0,73,-99.99,,,0.00,Acu-Link.com,2013-02-16 18:43:00,
2013-02-16 13:59:00,28.6,20.4,29.64,West,270,7.3,-999.0,71,-99.99,,,0.00,Acu-Link.com,2013-02-16 18:59:00,
2013-02-16 14:14:00,28.6,19.7,29.64,West,270,3.7,-999.0,69,-99.99,,,0.00,Acu-Link.com,2013-02-16 19:14:00,
2013-02-16 14:29:00,28.6,17.6,29.63,South,180,1.7,-999.0,63,-99.99,,,0.00,Acu-Link.com,2013-02-16 19:29:00,
2013-02-16 14:44:00,28.6,17.3,29.62,WSW,247,5.8,-999.0,62,-99.99,,,0.00,Acu-Link.com,2013-02-16 19:44:00,
2013-02-16 15:00:00,29.3,18.3,29.63,West,270,4.7,-999.0,63,-99.99,,,0.00,Acu-Link.com,2013-02-16 20:00:00,
2013-02-16 15:15:00,29.1,17.4,29.63,ESE,112,4.7,-999.0,61,-99.99,,,0.00,Acu-Link.com,2013-02-16 20:15:00,
2013-02-16 15:30:00,28.9,17.2,29.62,West,270,11.9,-999.0,61,-99.99,,,0.00,Acu-Link.com,2013-02-16 20:30:00,
2013-02-16 15:45:00,28.8,17.4,29.62,WSW,247,7.3,-999.0,62,-99.99,,,0.00,Acu-Link.com,2013-02-16 20:45:00,
2013-02-16 16:01:00,29.5,16.2,29.61,WSW,247,9.4,-999.0,57,-99.99,,,0.00,Acu-Link.com,2013-02-16 21:01:00,
2013-02-16 16:16:00,29.8,16.4,29.60,West,270,8.3,-999.0,57,-99.99,,,0.00,Acu-Link.com,2013-02-16 21:16:00,
2013-02-16 16:32:00,30.2,14.7,29.59,WNW,292,10.4,-999.0,52,-99.99,,,0.00,Acu-Link.com,2013-02-16 21:32:00,
2013-02-16 16:47:00,29.3,13.4,29.59,WSW,247,6.8,-999.0,51,-99.99,,,0.00,Acu-Link.com,2013-02-16 21:47:00,
2013-02-16 17:02:00,28.6,12.8,29.60,WSW,247,9.9,-999.0,51,-99.99,,,0.00,Acu-Link.com,2013-02-16 22:02:00,
2013-02-16 17:17:00,27.7,12.8,29.61,SW,225,5.3,-999.0,53,-99.99,,,0.00,Acu-Link.com,2013-02-16 22:17:00,
2013-02-16 17:32:00,27.5,13.5,29.61,ENE,67,11.9,-999.0,55,-99.99,,,0.00,Acu-Link.com,2013-02-16 22:32:00,
2013-02-16 17:48:00,25.7,13.4,29.62,SW,225,10.4,-999.0,59,-99.99,,,0.00,Acu-Link.com,2013-02-16 22:48:00,
2013-02-16 18:03:00,25.0,13.8,29.63,WSW,247,6.8,-999.0,62,-99.99,,,0.00,Acu-Link.com,2013-02-16 23:03:00,
2013-02-16 18:18:00,24.6,14.2,29.63,WSW,247,6.3,-999.0,64,-99.99,,,0.00,Acu-Link.com,2013-02-16 23:18:00,
2013-02-16 18:34:00,23.7,14.7,29.64,West,270,10.4,-999.0,68,-99.99,,,0.00,Acu-Link.com,2013-02-16 23:34:00,
2013-02-16 18:49:00,23.5,14.5,29.65,West,270,5.3,-999.0,68,-99.99,,,0.00,Acu-Link.com,2013-02-16 23:49:00,
2013-02-16 19:04:00,23.2,14.2,29.65,SW,225,7.8,-999.0,68,-99.99,,,0.00,Acu-Link.com,2013-02-17 00:04:00,
2013-02-16 19:19:00,22.8,13.8,29.66,SW,225,7.8,-999.0,68,-99.99,,,0.00,Acu-Link.com,2013-02-17 00:19:00,
2013-02-16 19:34:00,22.6,13.7,29.66,SSW,202,5.8,-999.0,68,-99.99,,,0.00,Acu-Link.com,2013-02-17 00:34:00,
2013-02-16 19:50:00,22.6,13.7,29.66,WSW,247,7.3,-999.0,68,-99.99,,,0.00,Acu-Link.com,2013-02-17 00:50:00,
2013-02-16 20:05:00,22.3,13.0,29.67,West,270,10.9,-999.0,67,-99.99,,,0.00,Acu-Link.com,2013-02-17 01:05:00,
2013-02-16 20:20:00,22.3,12.3,29.67,West,270,7.3,-999.0,65,-99.99,,,0.00,Acu-Link.com,2013-02-17 01:20:00,
2013-02-16 20:35:00,22.1,11.8,29.66,SW,225,10.9,-999.0,64,-99.99,,,0.00,Acu-Link.com,2013-02-17 01:35:00,
2013-02-16 20:51:00,21.9,12.7,29.67,SW,225,5.8,-999.0,67,-99.99,,,0.00,Acu-Link.com,2013-02-17 01:51:00,
2013-02-16 21:06:00,21.7,12.8,29.67,NNE,22,7.3,-999.0,68,-99.99,,,0.00,Acu-Link.com,2013-02-17 02:06:00,
2013-02-16 21:21:00,21.7,13.1,29.67,West,270,6.8,-999.0,69,-99.99,,,0.00,Acu-Link.com,2013-02-17 02:21:00,
2013-02-16 21:36:00,21.4,12.8,29.67,WSW,247,8.3,-999.0,69,-99.99,,,0.00,Acu-Link.com,2013-02-17 02:36:00,
2013-02-16 21:52:00,21.2,12.6,29.68,WSW,247,8.3,-999.0,69,-99.99,,,0.00,Acu-Link.com,2013-02-17 02:52:00,
2013-02-16 22:07:00,20.8,12.9,29.68,West,270,10.9,-999.0,71,-99.99,,,0.00,Acu-Link.com,2013-02-17 03:07:00,
2013-02-16 22:22:00,20.8,13.2,29.68,West,270,5.3,-999.0,72,-99.99,,,0.00,Acu-Link.com,2013-02-17 03:22:00,
2013-02-16 22:38:00,20.8,13.2,29.68,WSW,247,8.9,-999.0,72,-99.99,,,0.00,Acu-Link.com,2013-02-17 03:38:00,
2013-02-16 22:53:00,20.5,13.2,29.68,West,270,5.3,-999.0,73,-99.99,,,0.00,Acu-Link.com,2013-02-17 03:53:00,
2013-02-16 23:08:00,20.5,13.2,29.68,West,270,9.9,-999.0,73,-99.99,,,0.00,Acu-Link.com,2013-02-17 04:08:00,
2013-02-16 23:23:00,20.3,13.1,29.66,West,270,9.4,-999.0,73,-99.99,,,0.00,Acu-Link.com,2013-02-17 04:23:00,
2013-02-16 23:39:00,20.1,13.5,29.66,West,270,8.9,-999.0,75,-99.99,,,0.00,Acu-Link.com,2013-02-17 04:39:00,
2013-02-16 23:54:00,20.1,14.1,29.66,NW,315,8.9,-999.0,77,-99.99,,,0.00,Acu-Link.com,2013-02-17 04:54:00,